createdAt,value
2018-06-10T00:04:11.459Z,54.90
2018-06-10T00:06:39.897Z,54.30
2018-06-10T00:09:08.849Z,54.20
2018-06-10T00:11:37.266Z,55.10
2018-06-10T00:14:05.844Z,55.40
2018-06-10T00:16:34.223Z,55.70
2018-06-10T00:19:02.609Z,56.60
2018-06-10T00:21:31.069Z,57.20
2018-06-10T00:23:59.456Z,57.60
2018-06-10T00:26:27.856Z,58.30
2018-06-10T00:29:01.385Z,58.70
2018-06-10T00:31:29.764Z,59.20
2018-06-10T00:33:58.197Z,59.60
2018-06-10T00:36:26.742Z,60.00
2018-06-10T00:38:55.092Z,60.50
2018-06-10T00:41:23.491Z,60.90
2018-06-10T00:43:51.961Z,61.10
2018-06-10T00:46:20.329Z,61.50
2018-06-10T00:48:48.690Z,61.90
2018-06-10T00:51:17.120Z,62.20
2018-06-10T00:53:45.492Z,62.70
2018-06-10T00:56:53.537Z,62.90
2018-06-10T00:59:21.937Z,63.30
2018-06-10T01:01:50.313Z,64.00
2018-06-10T01:04:18.893Z,64.50
2018-06-10T01:06:47.272Z,65.10
2018-06-10T01:09:15.614Z,65.70
2018-06-10T01:14:12.151Z,67.20
2018-06-10T01:16:40.506Z,68.20
2018-06-10T01:19:09.651Z,69.60
2018-06-10T01:21:38.017Z,70.90
2018-06-10T01:24:06.420Z,72.10
2018-06-10T01:26:40.293Z,73.00
2018-06-10T01:29:09.377Z,74.70
2018-06-10T01:31:37.740Z,76.20
2018-06-10T01:34:06.134Z,77.50
2018-06-10T01:36:34.505Z,78.60
2018-06-10T01:39:02.997Z,79.80
2018-06-10T01:41:31.411Z,80.80
2018-06-10T01:43:59.835Z,81.30
2018-06-10T01:46:28.237Z,82.40
2018-06-10T01:48:56.881Z,83.10
2018-06-10T01:51:25.264Z,83.70
2018-06-10T01:53:53.653Z,84.40
2018-06-10T01:56:22.062Z,85.30
2018-06-10T01:58:50.456Z,86.10
2018-06-10T02:01:18.818Z,86.90
2018-06-10T02:03:47.363Z,87.90
2018-06-10T02:06:15.789Z,88.70
2018-06-10T02:08:44.149Z,89.70
2018-06-10T02:11:12.680Z,90.60
2018-06-10T02:13:41.040Z,91.20
2018-06-10T02:16:09.571Z,91.80
2018-06-10T02:18:37.961Z,92.30
2018-06-10T02:21:06.456Z,92.80
2018-06-10T02:23:34.820Z,93.10
2018-06-10T02:26:03.344Z,93.40
2018-06-10T02:28:31.720Z,93.80
2018-06-10T02:31:00.101Z,93.60
2018-06-10T02:33:28.741Z,93.70
2018-06-10T02:35:57.118Z,93.70
2018-06-10T02:38:25.489Z,93.90
2018-06-10T02:43:22.082Z,94.40
2018-06-10T02:45:50.452Z,94.20
2018-06-10T02:48:18.884Z,93.90
2018-06-10T02:50:47.261Z,93.70
2018-06-10T02:53:15.640Z,93.60
2018-06-10T02:55:44.260Z,93.50
2018-06-10T02:58:12.629Z,93.50
2018-06-10T03:00:40.989Z,93.50
2018-06-10T03:03:10.157Z,93.60
2018-06-10T03:05:38.528Z,93.90
2018-06-10T03:08:06.916Z,94.00
2018-06-10T03:10:35.341Z,94.30
2018-06-10T03:13:03.789Z,94.40
2018-06-10T03:15:32.169Z,94.50
2018-06-10T03:18:00.581Z,94.60
2018-06-10T03:20:28.948Z,94.70
2018-06-10T03:22:57.347Z,95.10
2018-06-10T03:25:25.828Z,95.00
2018-06-10T03:27:54.237Z,95.00
2018-06-10T03:30:22.644Z,95.00
2018-06-10T03:32:51.110Z,95.00
2018-06-10T03:35:19.504Z,94.90
2018-06-10T03:40:16.085Z,95.00
2018-06-10T03:45:12.628Z,95.00
2018-06-10T03:47:41.013Z,95.00
2018-06-10T03:50:10.069Z,94.90
2018-06-10T03:52:38.497Z,94.80
2018-06-10T03:55:07.119Z,94.50
2018-06-10T03:57:35.520Z,94.00
2018-06-10T04:00:03.939Z,93.80
2018-06-10T04:02:32.352Z,93.70
2018-06-10T04:05:00.737Z,93.80
2018-06-10T04:07:29.129Z,94.00
2018-06-10T04:09:57.527Z,94.10
2018-06-10T04:12:25.976Z,94.20
2018-06-10T04:14:57.273Z,94.60
2018-06-10T04:17:25.704Z,95.00
2018-06-10T04:19:54.068Z,94.10
2018-06-10T04:22:22.419Z,94.00
2018-06-10T04:24:50.892Z,94.60
2018-06-10T04:27:19.268Z,94.40
2018-06-10T04:29:47.630Z,94.40
2018-06-10T04:32:16.317Z,94.60
2018-06-10T04:34:44.839Z,94.70
2018-06-10T04:37:13.388Z,95.00
2018-06-10T04:39:41.820Z,95.20
2018-06-10T04:42:10.221Z,95.40
2018-06-10T04:44:38.660Z,95.50
2018-06-10T04:47:07.089Z,95.10
2018-06-10T04:49:35.482Z,95.50
2018-06-10T04:52:03.849Z,95.50
2018-06-10T04:54:32.282Z,95.80
2018-06-10T04:57:00.685Z,95.70
2018-06-10T04:59:29.099Z,95.60
2018-06-10T05:01:57.556Z,95.30
2018-06-10T05:04:25.929Z,95.30
2018-06-10T05:06:54.287Z,96.00
2018-06-10T05:09:22.694Z,96.80
2018-06-10T05:11:51.076Z,97.10
2018-06-10T05:14:19.446Z,97.20
2018-06-10T05:16:47.997Z,97.70
2018-06-10T05:19:16.374Z,98.00
2018-06-10T05:21:45.671Z,98.20
2018-06-10T05:24:14.159Z,98.40
2018-06-10T05:26:42.559Z,98.30
2018-06-10T05:29:11.020Z,98.80
2018-06-10T05:31:40.349Z,99.50
2018-06-10T05:34:08.740Z,99.90
2018-06-10T05:36:37.237Z,99.90
2018-06-10T05:39:08.440Z,99.90
2018-06-10T05:41:36.804Z,99.90
2018-06-10T05:44:05.259Z,99.90
2018-06-10T05:46:33.959Z,99.90
2018-06-10T05:49:02.362Z,99.90
2018-06-10T05:51:30.757Z,99.90
2018-06-10T05:53:59.205Z,99.90
2018-06-10T05:56:27.676Z,99.90
2018-06-10T05:58:56.052Z,99.90
2018-06-10T06:01:24.495Z,99.90
2018-06-10T06:06:21.021Z,99.90
2018-06-10T06:08:49.735Z,99.90
2018-06-10T06:11:18.133Z,99.90
2018-06-10T06:13:46.621Z,99.90
2018-06-10T06:16:15.211Z,99.90
2018-06-10T06:18:43.655Z,99.90
2018-06-10T06:21:12.013Z,99.90
2018-06-10T06:23:40.829Z,99.90
2018-06-10T06:26:09.273Z,99.90
2018-06-10T06:28:37.761Z,99.90
2018-06-10T06:31:06.497Z,99.90
2018-06-10T06:36:03.193Z,99.90
2018-06-10T06:38:31.701Z,99.90
2018-06-10T06:41:00.115Z,99.90
2018-06-10T06:43:28.509Z,99.90
2018-06-10T06:45:57.001Z,99.90
2018-06-10T06:48:25.485Z,99.90
2018-06-10T06:50:53.877Z,99.90
2018-06-10T06:53:22.380Z,99.90
2018-06-10T06:55:50.766Z,99.90
2018-06-10T06:58:19.128Z,99.90
2018-06-10T07:00:47.748Z,99.90
2018-06-10T07:03:16.228Z,99.90
2018-06-10T07:05:44.595Z,99.90
2018-06-10T07:08:13.161Z,99.90
2018-06-10T07:10:41.574Z,99.90
2018-06-10T07:15:39.233Z,99.90
2018-06-10T07:18:07.697Z,99.90
2018-06-10T07:20:36.109Z,99.90
2018-06-10T07:23:04.967Z,99.90
2018-06-10T07:28:02.054Z,99.90
2018-06-10T07:30:30.545Z,99.90
2018-06-10T07:32:58.885Z,99.90
2018-06-10T07:35:27.241Z,99.90
2018-06-10T07:37:55.665Z,99.90
2018-06-10T07:40:24.056Z,99.90
2018-06-10T07:42:52.442Z,99.90
2018-06-10T07:45:21.021Z,99.90
2018-06-10T07:47:49.380Z,99.90
2018-06-10T07:52:46.104Z,99.90
2018-06-10T07:55:14.464Z,99.90
2018-06-10T07:57:42.828Z,99.90
2018-06-10T08:00:11.531Z,99.90
2018-06-10T08:02:39.952Z,99.90
2018-06-10T08:05:08.342Z,99.90
2018-06-10T08:07:36.866Z,99.90
2018-06-10T08:10:05.369Z,99.90
2018-06-10T08:12:33.873Z,99.90
2018-06-10T08:15:02.318Z,99.90
2018-06-10T08:17:30.816Z,99.90
2018-06-10T08:19:59.394Z,99.90
2018-06-10T08:22:28.132Z,99.90
2018-06-10T08:24:56.517Z,99.90
2018-06-10T08:27:25.032Z,99.90
2018-06-10T08:29:53.734Z,99.90
2018-06-10T08:32:22.112Z,99.90
2018-06-10T08:34:50.524Z,99.90
2018-06-10T08:37:19.101Z,99.90
2018-06-10T08:39:47.483Z,99.90
2018-06-10T08:42:16.036Z,99.90
2018-06-10T08:44:44.540Z,99.90
2018-06-10T08:47:13.274Z,99.90
2018-06-10T08:49:41.787Z,99.90
2018-06-10T08:52:10.281Z,99.90
2018-06-10T08:54:39.117Z,99.90
2018-06-10T08:57:07.538Z,99.90
2018-06-10T08:59:36.367Z,99.90
2018-06-10T09:02:04.782Z,99.90
2018-06-10T09:04:33.146Z,99.90
2018-06-10T09:07:01.748Z,99.90
2018-06-10T09:09:30.460Z,99.90
2018-06-10T09:11:58.865Z,99.90
2018-06-10T09:14:27.461Z,99.90
2018-06-10T09:16:55.953Z,99.90
2018-06-10T09:19:24.396Z,99.90
2018-06-10T09:21:52.804Z,99.90
2018-06-10T09:24:21.358Z,99.90
2018-06-10T09:26:50.133Z,99.90
2018-06-10T09:29:18.635Z,99.90
2018-06-10T09:31:47.028Z,99.90
2018-06-10T09:34:15.462Z,99.90
2018-06-10T09:36:43.905Z,99.90
2018-06-10T09:39:12.285Z,99.90
2018-06-10T09:41:40.724Z,99.90
2018-06-10T09:44:09.176Z,99.90
2018-06-10T09:46:37.572Z,99.90
2018-06-10T09:49:06.244Z,99.90
2018-06-10T09:51:34.806Z,99.90
2018-06-10T09:54:03.173Z,99.90
2018-06-10T09:56:31.543Z,99.90
2018-06-10T09:59:00.021Z,99.90
2018-06-10T10:01:28.425Z,99.90
2018-06-10T10:03:56.842Z,99.90
2018-06-10T10:06:25.249Z,99.90
2018-06-10T10:08:54.362Z,99.90
2018-06-10T10:11:22.825Z,99.90
2018-06-10T10:13:51.412Z,99.90
2018-06-10T10:16:19.825Z,99.90
2018-06-10T10:18:48.261Z,99.90
2018-06-10T10:21:16.773Z,99.90
2018-06-10T10:26:13.313Z,99.90
2018-06-10T10:28:42.772Z,99.90
2018-06-10T10:31:11.167Z,99.90
2018-06-10T10:33:39.614Z,99.90
2018-06-10T10:36:08.285Z,99.90
2018-06-10T10:38:36.732Z,99.90
2018-06-10T10:41:05.119Z,99.90
2018-06-10T10:43:33.912Z,99.90
2018-06-10T10:46:02.495Z,99.90
2018-06-10T10:48:30.997Z,99.90
2018-06-10T10:50:59.536Z,99.90
2018-06-10T10:53:27.960Z,99.90
2018-06-10T10:55:56.350Z,99.90
2018-06-10T10:58:25.045Z,99.90
2018-06-10T11:00:53.621Z,99.90
2018-06-10T11:03:22.061Z,99.90
2018-06-10T11:05:50.565Z,99.90
2018-06-10T11:08:18.977Z,99.90
2018-06-10T11:10:47.428Z,99.90
2018-06-10T11:13:16.221Z,99.90
2018-06-10T11:15:44.704Z,99.90
2018-06-10T11:18:13.141Z,99.90
2018-06-10T11:20:41.697Z,99.90
2018-06-10T11:23:10.370Z,99.90
2018-06-10T11:25:38.861Z,99.90
2018-06-10T11:28:07.355Z,99.90
2018-06-10T11:30:35.814Z,99.90
2018-06-10T11:33:04.295Z,99.90
2018-06-10T11:35:32.806Z,99.90
2018-06-10T11:38:01.228Z,99.90
2018-06-10T11:40:29.619Z,99.90
2018-06-10T11:42:58.336Z,99.90
2018-06-10T11:45:26.728Z,99.90
2018-06-10T11:47:55.249Z,99.90
2018-06-10T11:50:23.736Z,99.90
2018-06-10T11:52:52.141Z,99.90
2018-06-10T11:55:20.597Z,99.90
2018-06-10T11:57:49.085Z,99.90
2018-06-10T12:00:17.495Z,99.90
2018-06-10T12:02:45.865Z,99.90
2018-06-10T12:05:14.360Z,99.90
2018-06-10T12:07:43.546Z,99.90
2018-06-10T12:10:11.936Z,99.90
2018-06-10T12:12:40.509Z,99.90
2018-06-10T12:15:08.878Z,99.90
2018-06-10T12:17:37.412Z,99.90
2018-06-10T12:20:05.917Z,99.90
2018-06-10T12:22:34.427Z,99.90
2018-06-10T12:25:02.816Z,99.90
2018-06-10T12:27:31.491Z,99.90
2018-06-10T12:29:59.878Z,99.90
2018-06-10T12:32:28.428Z,99.90
2018-06-10T12:34:56.906Z,99.90
2018-06-10T12:37:25.437Z,99.90
2018-06-10T12:39:53.861Z,99.90
2018-06-10T12:42:22.292Z,99.90
2018-06-10T12:44:50.989Z,99.90
2018-06-10T12:47:19.502Z,99.90
2018-06-10T12:49:48.407Z,99.90
2018-06-10T12:52:16.792Z,99.90
2018-06-10T12:54:45.234Z,99.90
2018-06-10T12:57:14.094Z,99.90
2018-06-10T12:59:42.476Z,99.90
2018-06-10T13:02:10.968Z,99.90
2018-06-10T13:04:39.378Z,99.90
2018-06-10T13:07:07.840Z,99.90
2018-06-10T13:09:36.236Z,99.90
2018-06-10T13:12:04.981Z,99.90
2018-06-10T13:14:33.383Z,99.90
2018-06-10T13:17:01.883Z,99.90
2018-06-10T13:19:30.524Z,99.90
2018-06-10T13:21:58.917Z,99.90
2018-06-10T13:24:27.350Z,99.90
2018-06-10T13:26:55.978Z,99.90
2018-06-10T13:29:24.414Z,99.90
2018-06-10T13:31:52.845Z,99.90
2018-06-10T13:34:23.156Z,99.90
2018-06-10T13:36:51.576Z,99.90
2018-06-10T13:39:20.011Z,99.90
2018-06-10T13:41:48.437Z,99.90
2018-06-10T13:44:16.861Z,99.90
2018-06-10T13:46:45.228Z,99.90
2018-06-10T13:49:15.013Z,99.90
2018-06-10T13:51:44.021Z,99.90
2018-06-10T13:54:12.691Z,99.90
2018-06-10T13:56:41.379Z,99.90
2018-06-10T13:59:10.798Z,99.90
2018-06-10T14:01:39.457Z,99.90
2018-06-10T14:04:08.266Z,99.90
2018-06-10T14:06:37.496Z,99.90
2018-06-10T14:09:06.988Z,99.90
2018-06-10T14:11:35.723Z,99.90
2018-06-10T14:14:04.572Z,99.90
2018-06-10T14:16:32.972Z,99.90
2018-06-10T14:19:01.416Z,99.90
2018-06-10T14:21:30.482Z,99.90
2018-06-10T14:23:59.075Z,99.90
2018-06-10T14:26:27.960Z,99.90
2018-06-10T14:28:56.716Z,99.90
2018-06-10T14:31:25.187Z,99.90
2018-06-10T14:33:54.289Z,99.90
2018-06-10T14:36:23.061Z,99.90
2018-06-10T14:38:51.679Z,99.90
2018-06-10T14:41:20.828Z,99.90
2018-06-10T14:43:49.913Z,99.90
2018-06-10T14:46:19.504Z,99.90
2018-06-10T14:48:48.544Z,99.90
2018-06-10T14:51:17.462Z,99.90
2018-06-10T14:53:46.019Z,99.90
2018-06-10T14:56:15.262Z,99.90
2018-06-10T14:58:43.999Z,99.90
2018-06-10T15:01:12.855Z,99.90
2018-06-10T15:03:41.512Z,99.90
2018-06-10T15:06:10.108Z,99.90
2018-06-10T15:08:38.799Z,99.90
2018-06-10T15:11:07.528Z,99.90
2018-06-10T15:13:35.941Z,99.90
2018-06-10T15:16:04.831Z,99.90
2018-06-10T15:18:33.644Z,99.90
2018-06-10T15:21:02.257Z,99.90
2018-06-10T15:25:59.310Z,99.90
2018-06-10T15:28:27.998Z,99.90
2018-06-10T15:30:56.592Z,99.90
2018-06-10T15:33:25.333Z,99.90
2018-06-10T15:35:53.846Z,99.90
2018-06-10T15:38:22.312Z,99.90
2018-06-10T15:40:51.197Z,99.90
2018-06-10T15:43:19.720Z,99.90
2018-06-10T15:45:48.148Z,99.90
2018-06-10T15:48:16.622Z,99.90
2018-06-10T15:50:45.237Z,99.90
2018-06-10T15:53:13.682Z,99.90
2018-06-10T15:55:42.098Z,99.90
2018-06-10T15:58:10.504Z,99.90
2018-06-10T16:05:35.255Z,99.90
2018-06-10T16:08:03.665Z,99.90
2018-06-10T16:10:32.292Z,99.90
2018-06-10T16:13:00.665Z,99.90
2018-06-10T16:15:29.109Z,99.90
2018-06-10T16:17:57.970Z,99.90
2018-06-10T16:20:26.566Z,99.90
2018-06-10T16:22:55.001Z,99.90
2018-06-10T16:25:23.451Z,99.90
2018-06-10T16:27:51.840Z,99.90
2018-06-10T16:30:20.241Z,99.90
2018-06-10T16:32:48.988Z,99.90
2018-06-10T16:35:17.360Z,99.90
2018-06-10T16:37:46.208Z,99.90
2018-06-10T16:40:14.797Z,99.90
2018-06-10T16:42:43.172Z,99.90
2018-06-10T16:45:11.522Z,99.90
2018-06-10T16:47:39.989Z,99.90
2018-06-10T16:50:08.372Z,99.90
2018-06-10T16:52:36.820Z,99.90
2018-06-10T16:57:33.442Z,99.90
2018-06-10T17:00:02.618Z,99.90
2018-06-10T17:04:59.338Z,99.90
2018-06-10T17:07:27.760Z,99.90
2018-06-10T17:09:56.368Z,99.90
2018-06-10T17:12:24.788Z,99.90
2018-06-10T17:14:53.176Z,99.90
2018-06-10T17:17:21.605Z,99.90
2018-06-10T17:19:50.053Z,99.90
2018-06-10T17:22:18.465Z,99.90
2018-06-10T17:24:46.910Z,99.90
2018-06-10T17:27:16.208Z,99.90
2018-06-10T17:29:44.628Z,99.90
2018-06-10T17:32:13.209Z,99.90
2018-06-10T17:34:41.653Z,99.90
2018-06-10T17:37:10.028Z,99.90
2018-06-10T17:42:07.078Z,99.90
2018-06-10T17:44:35.602Z,99.90
2018-06-10T17:47:04.089Z,99.90
2018-06-10T17:49:32.687Z,99.90
2018-06-10T17:52:01.181Z,99.90
2018-06-10T17:54:31.729Z,99.90
2018-06-10T17:57:00.485Z,99.90
2018-06-10T17:59:28.972Z,99.90
2018-06-10T18:01:57.655Z,99.90
2018-06-10T18:04:26.035Z,99.90
2018-06-10T18:06:54.459Z,99.90
2018-06-10T18:09:23.145Z,99.90
2018-06-10T18:11:51.606Z,99.90
2018-06-10T18:14:20.022Z,99.90
2018-06-10T18:16:48.444Z,99.90
2018-06-10T18:21:46.624Z,99.90
2018-06-10T18:24:15.138Z,99.90
2018-06-10T18:26:43.589Z,99.90
2018-06-10T18:29:11.966Z,99.90
2018-06-10T18:31:40.599Z,99.90
2018-06-10T18:34:09.030Z,99.90
2018-06-10T18:36:37.485Z,99.90
2018-06-10T18:39:08.251Z,99.90
2018-06-10T18:41:36.653Z,99.90
2018-06-10T18:44:05.080Z,99.90
2018-06-10T18:46:33.526Z,99.90
2018-06-10T18:49:01.888Z,99.90
2018-06-10T18:51:30.851Z,99.90
2018-06-10T18:53:59.680Z,99.90
2018-06-10T18:56:28.825Z,99.90
2018-06-10T18:58:57.241Z,99.90
2018-06-10T19:01:25.883Z,99.90
2018-06-10T19:03:54.304Z,99.90
2018-06-10T19:06:22.782Z,99.90
2018-06-10T19:08:51.241Z,99.90
2018-06-10T19:13:47.824Z,99.90
2018-06-10T19:16:16.520Z,99.90
2018-06-10T19:21:13.248Z,99.90
2018-06-10T19:23:43.134Z,99.90
2018-06-10T19:26:11.544Z,99.90
2018-06-10T19:28:39.959Z,99.90
2018-06-10T19:31:08.517Z,99.90
2018-06-10T19:33:36.993Z,99.90
2018-06-10T19:36:05.914Z,99.90
2018-06-10T19:38:34.973Z,99.90
2018-06-10T19:43:43.600Z,99.90
2018-06-10T19:46:12.039Z,99.90
2018-06-10T19:48:40.475Z,99.90
2018-06-10T19:51:09.174Z,99.90
2018-06-10T19:53:37.747Z,99.90
2018-06-10T19:56:06.870Z,99.90
2018-06-10T19:58:35.369Z,99.90
2018-06-10T20:01:04.021Z,99.90
2018-06-10T20:03:32.505Z,99.90
2018-06-10T20:06:01.146Z,99.90
2018-06-10T20:08:29.641Z,99.90
2018-06-10T20:10:58.033Z,99.90
2018-06-10T20:13:26.501Z,99.90
2018-06-10T20:15:54.931Z,99.90
2018-06-10T20:18:23.433Z,99.90
2018-06-10T20:20:51.979Z,99.90
2018-06-10T20:23:20.340Z,99.90
2018-06-10T20:25:48.721Z,99.90
2018-06-10T20:28:17.604Z,99.90
2018-06-10T20:30:46.251Z,99.90
2018-06-10T20:33:14.490Z,99.90
2018-06-10T20:35:42.984Z,99.90
2018-06-10T20:38:11.417Z,99.90
2018-06-10T20:40:39.858Z,99.90
2018-06-10T20:43:08.300Z,99.90
2018-06-10T20:45:36.701Z,99.90
2018-06-10T20:48:05.101Z,99.90
2018-06-10T20:50:33.533Z,99.90
2018-06-10T20:53:01.925Z,99.90
2018-06-10T20:55:30.329Z,99.90
2018-06-10T20:57:58.793Z,99.90
2018-06-10T21:00:27.268Z,99.90
2018-06-10T21:02:55.589Z,99.90
2018-06-10T21:05:24.078Z,99.90
2018-06-10T21:07:52.484Z,99.90
2018-06-10T21:10:20.910Z,99.90
2018-06-10T21:12:49.393Z,99.90
2018-06-10T21:15:17.893Z,99.90
2018-06-10T21:17:46.260Z,99.90
2018-06-10T21:20:14.850Z,99.90
2018-06-10T21:22:43.295Z,99.90
2018-06-10T21:25:11.725Z,99.90
2018-06-10T21:27:40.412Z,99.90
2018-06-10T21:30:08.789Z,99.90
2018-06-10T21:32:37.175Z,99.90
2018-06-10T21:35:05.597Z,99.90
2018-06-10T21:37:33.968Z,99.90
2018-06-10T21:40:02.373Z,99.90
2018-06-10T21:42:30.804Z,99.90
2018-06-10T21:44:59.209Z,99.90
2018-06-10T21:47:27.658Z,99.90
2018-06-10T21:49:56.024Z,99.90
2018-06-10T21:52:24.448Z,99.90
2018-06-10T21:54:53.010Z,99.90
2018-06-10T21:57:21.537Z,99.90
2018-06-10T21:59:49.962Z,99.90
2018-06-10T22:02:18.341Z,99.90
2018-06-10T22:04:46.985Z,99.90
2018-06-10T22:07:15.349Z,99.90
2018-06-10T22:09:43.751Z,99.90
2018-06-10T22:12:12.337Z,99.90
2018-06-10T22:14:40.831Z,99.90
2018-06-10T22:17:09.204Z,99.90
2018-06-10T22:19:37.638Z,99.90
2018-06-10T22:22:06.183Z,99.90
2018-06-10T22:24:34.561Z,99.90
2018-06-10T22:27:02.960Z,99.90
2018-06-10T22:29:31.331Z,99.90
2018-06-10T22:31:59.751Z,99.90
2018-06-10T22:34:28.141Z,99.90
2018-06-10T22:36:56.597Z,99.90
2018-06-10T22:39:24.980Z,99.90
2018-06-10T22:41:53.381Z,99.90
2018-06-10T22:44:21.876Z,99.90
2018-06-10T22:46:50.328Z,99.90
2018-06-10T22:49:18.752Z,99.90
2018-06-10T22:51:47.132Z,99.90
2018-06-10T22:54:25.534Z,99.90
2018-06-10T22:56:53.976Z,99.90
2018-06-10T22:59:22.373Z,99.90
2018-06-10T23:01:51.126Z,99.90
2018-06-10T23:04:19.491Z,99.90
2018-06-10T23:06:48.493Z,99.90
2018-06-10T23:09:17.232Z,99.90
2018-06-10T23:11:45.596Z,99.90
2018-06-10T23:14:14.054Z,99.90
2018-06-10T23:16:42.489Z,99.90
2018-06-10T23:19:11.022Z,99.90
2018-06-10T23:21:39.429Z,99.90
2018-06-10T23:24:07.875Z,99.90
2018-06-10T23:26:36.266Z,99.90
2018-06-10T23:29:04.676Z,99.90
2018-06-10T23:31:33.261Z,99.90
2018-06-10T23:34:01.667Z,99.90
2018-06-10T23:36:30.113Z,99.90
2018-06-10T23:38:58.554Z,99.90
2018-06-10T23:41:26.946Z,99.90
2018-06-10T23:43:55.316Z,99.90
2018-06-10T23:46:23.732Z,99.90
2018-06-10T23:48:52.093Z,99.90
2018-06-10T23:51:20.480Z,99.90
2018-06-10T23:53:48.905Z,99.90
2018-06-10T23:56:17.308Z,99.90
2018-06-10T23:58:45.708Z,99.90
